Aérodrome :







RETROUVEZ-NOUS SUR...

 
LOGIN :

S'inscrire | Disclaimer

   EN    FR    IT 

 









Légende :    VFR   VFR Marginal   IFR   IFR Intensif   IFR Très Intensif
Visi : 
Plafond : 
>= 8 km
>= 3000ft
5 à 8 km
1000 à 3000 ft
1500m à 5 km
500 à 1000 ft
800 à 1500m
200 à 500 ft
< 800m
< 200 ft
Symboles :   Orages  Brouillard  Fortes neiges  Fortes précipitations  Vent > 20 kt






- Altitude de l'aérodrome : 461 ft
- Code IATA : YYT


CYYT - St John's Int

DERNIER METAR :
  • 030500Z 19022G32KT 6SM BR OVC004 12/12 A3012 RMK SF8 SLP206

METARs EXPIRÉS :
  • 030410Z 19025G34KT 6SM BR OVC004 12/12 A3014 RMK SF8 SLP212
  • 030400Z CCA 19027G32KT 8SM OVC005 12/12 A3015 RMK SF8 INTMT -RA SLP214
  • 030324Z 19026G33KT 5SM -RA BR OVC005 13/12 A3017 RMK SF8 SLP221
  • 030300Z 19024G30KT 5SM -DZ BR OVC005 13/12 A3018 RMK SF8 SLP225
  • 030237Z 20021G31KT 5SM -RA BR OVC005 12/12 A3019 RMK SF8 SLP230

TAF AMD TAF CYYT
Valide du 03 à 04h jusqu'au 04 à 00h UTC


030425Z 0304/0324 19020G30KT 1SM -RA -DZ BR BKN004
TEMPO 0304/0309 6SM BR OVC006
PROB30 0304/0309 1/2SM FG VV001
FM030900 18025G35KT 1/2SM SHRA FG VV002
TEMPO 0309/0311 5SM -SHRA BR BKN005 OVC008
FM031100 18025G35KT 2SM -SHRA BR OVC004
TEMPO 0311/0314 P6SM NSW SCT004 OVC060
FM031400 18020G30KT 3SM -RA -DZ BR OVC006
TEMPO 0314/0318 6SM BR SCT006 OVC015
FM031800 18012G22KT P6SM -SHRA OVC030
FM032100 20008KT 1SM -SHRA BR OVC004
PROB30 0321/0324 1/2SM -RA FG VV002 RMK NXT FCST BY 030600Z
FIR CZQX / Amérique du Nord



MET'MAP, la Météo Aéronautique d'un coup d'oeil ! - Copyright ORBIFLY Décembre 2007 - Disclaimer

ORBIFLY MET'MAP TEAM :

Programmation & Développement : Alexandra Zaïnal
Sur une idée originale de : Baudouin d'Aumeries
Assistance à la programmation : Marc-Olivier Méhu
Soutien technique & logistique : Manuel Goepfert

Contact : metmap@orbifly.com




SOURCES & CREDITS :

   NOAA